Date,TemperatureHighF,TemperatureAvgF,TemperatureLowF,DewpointHighF,DewpointAvgF,DewpointLowF,HumidityHigh,HumidityAvg,HumidityLow,PressureMaxIn,PressureMinIn,WindSpeedMaxMPH,WindSpeedAvgMPH,GustSpeedMaxMPH,PrecipitationSumIn
2013-1-6,51,48,43,49,44,37,99,88,61,30.22,30.10,0,0,0,0.19
2013-1-7,60,48,37,46,41,37,99,78,44,30.25,30.11,0,0,0,0.01
2013-1-8,62,55,46,60,52,41,97,90,79,30.15,30.05,0,0,0,0.00
2013-1-9,65,62,59,65,62,58,100,99,93,30.14,30.05,0,0,0,0.04
2013-1-10,64,62,60,64,62,60,100,100,100,30.13,29.94,0,0,0,0.41
2013-1-11,69,64,61,68,64,61,100,98,90,30.06,29.97,0,0,0,0.01
2013-1-12,68,64,62,68,64,62,100,100,95,30.02,29.88,0,0,0,0.02
2013-1-13,67,64,55,67,64,55,100,100,100,29.97,29.85,0,0,0,0.20
2013-1-14,56,50,43,56,50,43,100,100,100,30.03,29.96,0,0,0,0.48
2013-1-15,58,52,45,58,52,45,100,100,100,30.00,29.88,0,0,0,0.07
2013-1-16,51,44,39,51,43,37,100,96,87,30.04,29.88,0,0,0,0.13
2013-1-17,54,43,36,37,35,31,97,74,45,30.32,30.04,0,0,0,0.01
2013-1-18,58,45,36,43,38,34,96,78,48,30.44,30.31,0,0,0,0.00
2013-1-19,63,48,36,51,42,35,98,82,51,30.32,30.17,0,0,0,0.00
2013-1-20,66,50,38,54,46,38,100,86,59,30.20,30.07,0,0,0,0.01
2013-1-21,68,52,40,51,44,39,100,75,39,30.14,30.06,0,0,0,0.01
2013-1-22,58,48,39,43,36,28,94,67,37,30.30,30.14,0,0,0,0.00
2013-1-23,65,52,37,54,46,36,100,82,54,30.34,30.23,0,0,0,0.00
2013-1-24,70,58,43,58,53,42,100,86,62,30.28,30.17,0,0,0,0.00
2013-1-25,69,60,48,60,56,47,100,89,70,30.22,30.09,0,0,1,0.01
2013-1-26,72,61,51,66,58,51,100,90,67,30.19,30.12,0,0,1,0.01
2013-1-27,68,60,53,65,59,52,100,96,82,30.24,30.16,0,0,0,0.02
2013-1-28,73,65,59,67,63,59,100,94,75,30.20,30.07,0,0,0,0.01
2013-1-29,69,67,65,69,67,65,100,100,100,30.07,29.78,0,0,0,0.01
2013-1-30,69,58,43,69,53,30,100,84,50,30.11,29.64,0,0,0,0.89
2013-1-31,63,48,34,40,33,23,94,60,22,30.26,30.11,0,0,0,0.00